sensor_id;sensor_type;location;lat;lon;timestamp;P1;durP1;ratioP1;P2;durP2;ratioP2
73142;SDS011;61343;53.694;9.988;2022-10-16T00:01:56;10.97;;;5.93;;
73142;SDS011;61343;53.694;9.988;2022-10-16T00:04:21;12.20;;;6.20;;
73142;SDS011;61343;53.694;9.988;2022-10-16T00:06:46;12.87;;;6.13;;
73142;SDS011;61343;53.694;9.988;2022-10-16T00:09:11;14.23;;;6.93;;
73142;SDS011;61343;53.694;9.988;2022-10-16T00:11:37;13.50;;;6.17;;
73142;SDS011;61343;53.694;9.988;2022-10-16T00:14:05;10.75;;;5.80;;
73142;SDS011;61343;53.694;9.988;2022-10-16T00:16:33;11.27;;;6.13;;
73142;SDS011;61343;53.694;9.988;2022-10-16T00:18:59;11.52;;;5.60;;
73142;SDS011;61343;53.694;9.988;2022-10-16T00:21:26;11.97;;;5.90;;
73142;SDS011;61343;53.694;9.988;2022-10-16T00:23:54;13.23;;;6.07;;
73142;SDS011;61343;53.694;9.988;2022-10-16T00:26:20;13.57;;;5.95;;
73142;SDS011;61343;53.694;9.988;2022-10-16T00:28:47;11.43;;;5.50;;
73142;SDS011;61343;53.694;9.988;2022-10-16T00:31:13;12.13;;;5.50;;
73142;SDS011;61343;53.694;9.988;2022-10-16T00:33:39;12.13;;;5.93;;
73142;SDS011;61343;53.694;9.988;2022-10-16T00:36:05;11.00;;;5.43;;
73142;SDS011;61343;53.694;9.988;2022-10-16T00:38:32;10.45;;;4.70;;
73142;SDS011;61343;53.694;9.988;2022-10-16T00:40:57;10.10;;;4.73;;
73142;SDS011;61343;53.694;9.988;2022-10-16T00:43:33;9.43;;;4.70;;
73142;SDS011;61343;53.694;9.988;2022-10-16T00:46:02;9.70;;;4.60;;
73142;SDS011;61343;53.694;9.988;2022-10-16T00:48:29;9.77;;;4.53;;
73142;SDS011;61343;53.694;9.988;2022-10-16T00:50:55;9.02;;;4.30;;
73142;SDS011;61343;53.694;9.988;2022-10-16T00:53:22;9.87;;;4.20;;
73142;SDS011;61343;53.694;9.988;2022-10-16T00:55:49;8.70;;;3.65;;
73142;SDS011;61343;53.694;9.988;2022-10-16T00:58:15;7.57;;;3.67;;
73142;SDS011;61343;53.694;9.988;2022-10-16T01:00:40;7.97;;;3.50;;
73142;SDS011;61343;53.694;9.988;2022-10-16T01:03:21;11.13;;;3.33;;
73142;SDS011;61343;53.694;9.988;2022-10-16T01:05:56;6.80;;;3.30;;
73142;SDS011;61343;53.694;9.988;2022-10-16T01:08:39;8.95;;;3.05;;
73142;SDS011;61343;53.694;9.988;2022-10-16T01:11:22;13.50;;;3.42;;
73142;SDS011;61343;53.694;9.988;2022-10-16T01:13:53;8.52;;;3.20;;
73142;SDS011;61343;53.694;9.988;2022-10-16T01:18:53;8.07;;;3.10;;
73142;SDS011;61343;53.694;9.988;2022-10-16T01:21:35;7.35;;;2.97;;
73142;SDS011;61343;53.694;9.988;2022-10-16T01:24:17;8.15;;;3.20;;
73142;SDS011;61343;53.694;9.988;2022-10-16T01:29:53;9.35;;;3.03;;
73142;SDS011;61343;53.694;9.988;2022-10-16T01:32:28;7.07;;;2.70;;
73142;SDS011;61343;53.694;9.988;2022-10-16T01:35:02;7.70;;;3.10;;
73142;SDS011;61343;53.694;9.988;2022-10-16T01:37:45;7.57;;;3.05;;
73142;SDS011;61343;53.694;9.988;2022-10-16T01:40:16;8.35;;;3.08;;
73142;SDS011;61343;53.694;9.988;2022-10-16T01:42:46;10.07;;;2.80;;
73142;SDS011;61343;53.694;9.988;2022-10-16T01:45:17;7.00;;;2.60;;
73142;SDS011;61343;53.694;9.988;2022-10-16T01:47:45;5.78;;;2.70;;
73142;SDS011;61343;53.694;9.988;2022-10-16T01:50:12;6.97;;;2.53;;
73142;SDS011;61343;53.694;9.988;2022-10-16T01:52:41;6.65;;;2.88;;
73142;SDS011;61343;53.694;9.988;2022-10-16T01:55:10;5.63;;;2.60;;
73142;SDS011;61343;53.694;9.988;2022-10-16T01:57:39;7.00;;;2.80;;
73142;SDS011;61343;53.694;9.988;2022-10-16T02:00:09;8.77;;;2.63;;
73142;SDS011;61343;53.694;9.988;2022-10-16T02:02:36;4.82;;;2.30;;
73142;SDS011;61343;53.694;9.988;2022-10-16T02:05:15;6.50;;;2.50;;
73142;SDS011;61343;53.694;9.988;2022-10-16T02:07:41;9.68;;;2.97;;
73142;SDS011;61343;53.694;9.988;2022-10-16T02:10:07;6.13;;;2.57;;
73142;SDS011;61343;53.694;9.988;2022-10-16T02:12:33;8.05;;;3.03;;
73142;SDS011;61343;53.694;9.988;2022-10-16T02:15:04;7.05;;;2.75;;
73142;SDS011;61343;53.694;9.988;2022-10-16T02:17:30;8.65;;;2.50;;
73142;SDS011;61343;53.694;9.988;2022-10-16T02:19:55;6.43;;;2.20;;
73142;SDS011;61343;53.694;9.988;2022-10-16T02:22:23;8.15;;;3.28;;
73142;SDS011;61343;53.694;9.988;2022-10-16T02:24:59;8.20;;;2.90;;
73142;SDS011;61343;53.694;9.988;2022-10-16T02:27:37;6.43;;;2.70;;
73142;SDS011;61343;53.694;9.988;2022-10-16T02:30:14;5.13;;;2.45;;
73142;SDS011;61343;53.694;9.988;2022-10-16T02:32:56;5.88;;;2.58;;
73142;SDS011;61343;53.694;9.988;2022-10-16T02:35:25;6.78;;;2.60;;
73142;SDS011;61343;53.694;9.988;2022-10-16T02:37:52;5.90;;;2.67;;
73142;SDS011;61343;53.694;9.988;2022-10-16T02:40:19;8.15;;;2.45;;
73142;SDS011;61343;53.694;9.988;2022-10-16T02:42:49;6.82;;;2.35;;
73142;SDS011;61343;53.694;9.988;2022-10-16T02:45:15;5.70;;;2.35;;
73142;SDS011;61343;53.694;9.988;2022-10-16T02:47:41;7.70;;;2.53;;
73142;SDS011;61343;53.694;9.988;2022-10-16T02:50:06;8.50;;;2.60;;
73142;SDS011;61343;53.694;9.988;2022-10-16T02:52:32;5.10;;;2.20;;
73142;SDS011;61343;53.694;9.988;2022-10-16T02:54:57;6.53;;;2.43;;
73142;SDS011;61343;53.694;9.988;2022-10-16T02:57:22;6.47;;;2.37;;
73142;SDS011;61343;53.694;9.988;2022-10-16T02:59:48;6.37;;;2.27;;
73142;SDS011;61343;53.694;9.988;2022-10-16T03:02:13;6.73;;;2.23;;
73142;SDS011;61343;53.694;9.988;2022-10-16T03:04:38;6.10;;;2.37;;
73142;SDS011;61343;53.694;9.988;2022-10-16T03:07:04;6.57;;;2.10;;
73142;SDS011;61343;53.694;9.988;2022-10-16T03:09:29;4.97;;;2.50;;
73142;SDS011;61343;53.694;9.988;2022-10-16T03:11:55;5.77;;;1.87;;
73142;SDS011;61343;53.694;9.988;2022-10-16T03:14:20;5.13;;;2.17;;
73142;SDS011;61343;53.694;9.988;2022-10-16T03:16:46;7.13;;;2.25;;
73142;SDS011;61343;53.694;9.988;2022-10-16T03:19:11;7.23;;;2.40;;
73142;SDS011;61343;53.694;9.988;2022-10-16T03:21:36;6.63;;;2.20;;
73142;SDS011;61343;53.694;9.988;2022-10-16T03:24:01;7.63;;;2.20;;
73142;SDS011;61343;53.694;9.988;2022-10-16T03:26:27;7.57;;;2.20;;
73142;SDS011;61343;53.694;9.988;2022-10-16T03:28:52;6.13;;;2.17;;
73142;SDS011;61343;53.694;9.988;2022-10-16T03:31:17;4.80;;;2.30;;
73142;SDS011;61343;53.694;9.988;2022-10-16T03:33:43;7.03;;;1.70;;
73142;SDS011;61343;53.694;9.988;2022-10-16T03:36:08;5.30;;;2.10;;
73142;SDS011;61343;53.694;9.988;2022-10-16T03:38:33;7.23;;;2.10;;
73142;SDS011;61343;53.694;9.988;2022-10-16T03:40:58;7.40;;;2.30;;
73142;SDS011;61343;53.694;9.988;2022-10-16T03:43:24;6.85;;;2.10;;
73142;SDS011;61343;53.694;9.988;2022-10-16T03:45:50;6.00;;;1.80;;
73142;SDS011;61343;53.694;9.988;2022-10-16T03:48:16;5.30;;;2.30;;
73142;SDS011;61343;53.694;9.988;2022-10-16T03:50:41;7.10;;;2.25;;
73142;SDS011;61343;53.694;9.988;2022-10-16T03:53:07;6.93;;;2.13;;
73142;SDS011;61343;53.694;9.988;2022-10-16T03:55:32;6.73;;;2.30;;
73142;SDS011;61343;53.694;9.988;2022-10-16T03:57:57;5.40;;;1.77;;
73142;SDS011;61343;53.694;9.988;2022-10-16T04:00:23;7.03;;;2.30;;
73142;SDS011;61343;53.694;9.988;2022-10-16T04:02:48;6.13;;;2.10;;
73142;SDS011;61343;53.694;9.988;2022-10-16T04:05:13;5.33;;;1.80;;
73142;SDS011;61343;53.694;9.988;2022-10-16T04:07:38;7.37;;;2.40;;
73142;SDS011;61343;53.694;9.988;2022-10-16T04:10:04;6.00;;;1.90;;
73142;SDS011;61343;53.694;9.988;2022-10-16T04:12:29;8.73;;;1.98;;
73142;SDS011;61343;53.694;9.988;2022-10-16T04:14:55;6.10;;;2.10;;
73142;SDS011;61343;53.694;9.988;2022-10-16T04:17:20;6.53;;;2.40;;
73142;SDS011;61343;53.694;9.988;2022-10-16T04:19:45;9.73;;;2.00;;
73142;SDS011;61343;53.694;9.988;2022-10-16T04:22:10;7.17;;;2.13;;
73142;SDS011;61343;53.694;9.988;2022-10-16T04:24:36;8.20;;;2.30;;
73142;SDS011;61343;53.694;9.988;2022-10-16T04:27:01;4.60;;;1.83;;
73142;SDS011;61343;53.694;9.988;2022-10-16T04:29:26;5.77;;;1.90;;
73142;SDS011;61343;53.694;9.988;2022-10-16T04:31:52;7.33;;;2.20;;
73142;SDS011;61343;53.694;9.988;2022-10-16T04:34:17;5.60;;;2.10;;
73142;SDS011;61343;53.694;9.988;2022-10-16T04:36:42;8.57;;;2.07;;
73142;SDS011;61343;53.694;9.988;2022-10-16T04:39:07;8.67;;;2.00;;
73142;SDS011;61343;53.694;9.988;2022-10-16T04:41:33;5.20;;;2.03;;
73142;SDS011;61343;53.694;9.988;2022-10-16T04:43:58;7.73;;;2.00;;
73142;SDS011;61343;53.694;9.988;2022-10-16T04:46:23;7.27;;;2.30;;
73142;SDS011;61343;53.694;9.988;2022-10-16T04:48:48;4.57;;;2.00;;
73142;SDS011;61343;53.694;9.988;2022-10-16T04:51:14;6.50;;;1.90;;
73142;SDS011;61343;53.694;9.988;2022-10-16T04:53:39;5.47;;;1.90;;
73142;SDS011;61343;53.694;9.988;2022-10-16T04:56:04;5.77;;;2.00;;
73142;SDS011;61343;53.694;9.988;2022-10-16T04:58:30;7.63;;;2.20;;
73142;SDS011;61343;53.694;9.988;2022-10-16T05:00:55;7.57;;;2.20;;
73142;SDS011;61343;53.694;9.988;2022-10-16T05:03:20;5.47;;;2.20;;
73142;SDS011;61343;53.694;9.988;2022-10-16T05:05:46;8.37;;;2.30;;
73142;SDS011;61343;53.694;9.988;2022-10-16T05:08:12;4.95;;;2.13;;
73142;SDS011;61343;53.694;9.988;2022-10-16T05:10:38;8.50;;;2.20;;
73142;SDS011;61343;53.694;9.988;2022-10-16T05:13:05;7.95;;;2.30;;
73142;SDS011;61343;53.694;9.988;2022-10-16T05:15:30;8.70;;;2.57;;
73142;SDS011;61343;53.694;9.988;2022-10-16T05:17:56;6.17;;;2.20;;
73142;SDS011;61343;53.694;9.988;2022-10-16T05:20:22;8.97;;;3.27;;
73142;SDS011;61343;53.694;9.988;2022-10-16T05:22:47;6.13;;;2.70;;
73142;SDS011;61343;53.694;9.988;2022-10-16T05:25:13;10.10;;;3.30;;
73142;SDS011;61343;53.694;9.988;2022-10-16T05:27:38;7.53;;;2.90;;
73142;SDS011;61343;53.694;9.988;2022-10-16T05:30:04;9.00;;;4.10;;
73142;SDS011;61343;53.694;9.988;2022-10-16T05:32:29;7.07;;;3.00;;
73142;SDS011;61343;53.694;9.988;2022-10-16T05:34:54;7.17;;;2.57;;
73142;SDS011;61343;53.694;9.988;2022-10-16T05:37:20;7.33;;;3.00;;
73142;SDS011;61343;53.694;9.988;2022-10-16T05:39:45;7.90;;;3.10;;
73142;SDS011;61343;53.694;9.988;2022-10-16T05:42:10;9.50;;;3.30;;
73142;SDS011;61343;53.694;9.988;2022-10-16T05:44:35;8.10;;;3.40;;
73142;SDS011;61343;53.694;9.988;2022-10-16T05:47:01;8.83;;;3.07;;
73142;SDS011;61343;53.694;9.988;2022-10-16T05:49:26;8.87;;;3.10;;
73142;SDS011;61343;53.694;9.988;2022-10-16T05:51:51;9.00;;;2.90;;
73142;SDS011;61343;53.694;9.988;2022-10-16T05:54:17;8.93;;;3.13;;
73142;SDS011;61343;53.694;9.988;2022-10-16T05:56:42;8.60;;;3.00;;
73142;SDS011;61343;53.694;9.988;2022-10-16T05:59:07;8.20;;;3.30;;
73142;SDS011;61343;53.694;9.988;2022-10-16T06:01:33;9.07;;;3.30;;
73142;SDS011;61343;53.694;9.988;2022-10-16T06:03:58;15.10;;;6.00;;
73142;SDS011;61343;53.694;9.988;2022-10-16T06:06:25;10.90;;;3.70;;
73142;SDS011;61343;53.694;9.988;2022-10-16T06:08:53;10.27;;;3.67;;
73142;SDS011;61343;53.694;9.988;2022-10-16T06:11:20;9.10;;;3.35;;
73142;SDS011;61343;53.694;9.988;2022-10-16T06:13:49;8.32;;;3.42;;
73142;SDS011;61343;53.694;9.988;2022-10-16T06:16:15;8.32;;;3.22;;
73142;SDS011;61343;53.694;9.988;2022-10-16T06:18:40;7.23;;;3.10;;
73142;SDS011;61343;53.694;9.988;2022-10-16T06:21:10;7.43;;;2.90;;
73142;SDS011;61343;53.694;9.988;2022-10-16T06:23:41;8.95;;;3.00;;
73142;SDS011;61343;53.694;9.988;2022-10-16T06:26:10;9.87;;;3.53;;
73142;SDS011;61343;53.694;9.988;2022-10-16T06:28:37;8.00;;;2.95;;
73142;SDS011;61343;53.694;9.988;2022-10-16T06:31:03;6.93;;;2.80;;
73142;SDS011;61343;53.694;9.988;2022-10-16T06:33:29;14.35;;;3.42;;
73142;SDS011;61343;53.694;9.988;2022-10-16T06:36:01;8.20;;;3.17;;
73142;SDS011;61343;53.694;9.988;2022-10-16T06:38:28;8.07;;;3.00;;
73142;SDS011;61343;53.694;9.988;2022-10-16T06:40:54;9.70;;;3.60;;
73142;SDS011;61343;53.694;9.988;2022-10-16T06:43:19;8.23;;;2.90;;
73142;SDS011;61343;53.694;9.988;2022-10-16T06:45:50;8.63;;;2.93;;
73142;SDS011;61343;53.694;9.988;2022-10-16T06:48:16;8.90;;;3.03;;
73142;SDS011;61343;53.694;9.988;2022-10-16T06:50:41;10.20;;;3.33;;
73142;SDS011;61343;53.694;9.988;2022-10-16T06:53:07;10.83;;;3.33;;
73142;SDS011;61343;53.694;9.988;2022-10-16T06:55:32;6.37;;;3.27;;
73142;SDS011;61343;53.694;9.988;2022-10-16T06:57:57;9.63;;;3.20;;
73142;SDS011;61343;53.694;9.988;2022-10-16T07:00:22;7.77;;;2.93;;
73142;SDS011;61343;53.694;9.988;2022-10-16T07:02:48;6.80;;;3.07;;
73142;SDS011;61343;53.694;9.988;2022-10-16T07:05:13;10.17;;;3.17;;
73142;SDS011;61343;53.694;9.988;2022-10-16T07:07:38;8.03;;;3.10;;
73142;SDS011;61343;53.694;9.988;2022-10-16T07:10:04;6.97;;;3.17;;
73142;SDS011;61343;53.694;9.988;2022-10-16T07:12:29;7.33;;;2.90;;
73142;SDS011;61343;53.694;9.988;2022-10-16T07:14:54;7.47;;;3.50;;
73142;SDS011;61343;53.694;9.988;2022-10-16T07:17:21;6.93;;;2.97;;
73142;SDS011;61343;53.694;9.988;2022-10-16T07:19:46;6.77;;;3.20;;
73142;SDS011;61343;53.694;9.988;2022-10-16T07:22:11;7.10;;;3.10;;
73142;SDS011;61343;53.694;9.988;2022-10-16T07:24:36;7.07;;;2.83;;
73142;SDS011;61343;53.694;9.988;2022-10-16T07:27:02;7.90;;;3.07;;
73142;SDS011;61343;53.694;9.988;2022-10-16T07:29:27;11.23;;;3.90;;
73142;SDS011;61343;53.694;9.988;2022-10-16T07:31:52;8.23;;;3.40;;
73142;SDS011;61343;53.694;9.988;2022-10-16T07:34:18;8.43;;;2.90;;
73142;SDS011;61343;53.694;9.988;2022-10-16T07:36:46;7.30;;;2.90;;
73142;SDS011;61343;53.694;9.988;2022-10-16T07:39:13;7.10;;;3.00;;
73142;SDS011;61343;53.694;9.988;2022-10-16T07:41:38;7.37;;;3.00;;
73142;SDS011;61343;53.694;9.988;2022-10-16T07:44:03;8.90;;;3.53;;
73142;SDS011;61343;53.694;9.988;2022-10-16T07:46:29;8.38;;;3.72;;
73142;SDS011;61343;53.694;9.988;2022-10-16T07:48:55;7.80;;;3.57;;
73142;SDS011;61343;53.694;9.988;2022-10-16T07:51:22;8.52;;;3.67;;
73142;SDS011;61343;53.694;9.988;2022-10-16T07:53:48;7.80;;;3.50;;
73142;SDS011;61343;53.694;9.988;2022-10-16T07:56:15;9.55;;;3.08;;
73142;SDS011;61343;53.694;9.988;2022-10-16T07:58:41;8.50;;;3.30;;
73142;SDS011;61343;53.694;9.988;2022-10-16T08:01:10;7.60;;;3.60;;
73142;SDS011;61343;53.694;9.988;2022-10-16T08:03:38;6.63;;;2.95;;
73142;SDS011;61343;53.694;9.988;2022-10-16T08:06:03;7.47;;;3.23;;
73142;SDS011;61343;53.694;9.988;2022-10-16T08:08:29;11.57;;;3.60;;
73142;SDS011;61343;53.694;9.988;2022-10-16T08:10:55;8.63;;;3.77;;
73142;SDS011;61343;53.694;9.988;2022-10-16T08:13:20;7.67;;;4.20;;
73142;SDS011;61343;53.694;9.988;2022-10-16T08:15:46;8.43;;;3.63;;
73142;SDS011;61343;53.694;9.988;2022-10-16T08:18:12;11.77;;;3.97;;
73142;SDS011;61343;53.694;9.988;2022-10-16T08:20:38;8.52;;;3.75;;
73142;SDS011;61343;53.694;9.988;2022-10-16T08:23:04;8.10;;;3.42;;
73142;SDS011;61343;53.694;9.988;2022-10-16T08:25:29;9.97;;;5.77;;
73142;SDS011;61343;53.694;9.988;2022-10-16T08:27:55;8.13;;;3.43;;
73142;SDS011;61343;53.694;9.988;2022-10-16T08:30:20;9.23;;;3.60;;
73142;SDS011;61343;53.694;9.988;2022-10-16T08:32:47;7.03;;;3.40;;
73142;SDS011;61343;53.694;9.988;2022-10-16T08:35:13;9.10;;;3.90;;
73142;SDS011;61343;53.694;9.988;2022-10-16T08:37:39;6.70;;;3.30;;
73142;SDS011;61343;53.694;9.988;2022-10-16T08:40:06;8.73;;;3.42;;
73142;SDS011;61343;53.694;9.988;2022-10-16T08:48:05;10.07;;;3.80;;
73142;SDS011;61343;53.694;9.988;2022-10-16T08:50:41;9.13;;;3.70;;
73142;SDS011;61343;53.694;9.988;2022-10-16T08:53:09;11.77;;;3.65;;
73142;SDS011;61343;53.694;9.988;2022-10-16T08:58:10;9.57;;;4.38;;
73142;SDS011;61343;53.694;9.988;2022-10-16T09:00:38;7.30;;;3.20;;
73142;SDS011;61343;53.694;9.988;2022-10-16T09:03:06;6.35;;;3.20;;
73142;SDS011;61343;53.694;9.988;2022-10-16T09:15:00;6.97;;;2.80;;
73142;SDS011;61343;53.694;9.988;2022-10-16T09:17:37;8.10;;;2.70;;
73142;SDS011;61343;53.694;9.988;2022-10-16T09:20:49;6.97;;;2.65;;
73142;SDS011;61343;53.694;9.988;2022-10-16T09:25:28;6.87;;;2.57;;
73142;SDS011;61343;53.694;9.988;2022-10-16T09:27:53;7.60;;;2.30;;
73142;SDS011;61343;53.694;9.988;2022-10-16T09:30:20;8.45;;;3.15;;
73142;SDS011;61343;53.694;9.988;2022-10-16T09:32:47;8.07;;;2.30;;
73142;SDS011;61343;53.694;9.988;2022-10-16T09:35:19;6.53;;;3.30;;
73142;SDS011;61343;53.694;9.988;2022-10-16T09:37:47;6.45;;;2.40;;
73142;SDS011;61343;53.694;9.988;2022-10-16T09:40:31;7.18;;;2.40;;
73142;SDS011;61343;53.694;9.988;2022-10-16T09:45:55;8.47;;;2.10;;
73142;SDS011;61343;53.694;9.988;2022-10-16T09:48:44;6.05;;;2.10;;
73142;SDS011;61343;53.694;9.988;2022-10-16T09:51:18;4.78;;;2.03;;
73142;SDS011;61343;53.694;9.988;2022-10-16T09:53:46;5.25;;;2.00;;
73142;SDS011;61343;53.694;9.988;2022-10-16T09:56:20;6.03;;;1.80;;
73142;SDS011;61343;53.694;9.988;2022-10-16T09:58:54;4.80;;;1.88;;
73142;SDS011;61343;53.694;9.988;2022-10-16T10:01:22;7.88;;;2.10;;
73142;SDS011;61343;53.694;9.988;2022-10-16T10:04:09;6.45;;;1.90;;
73142;SDS011;61343;53.694;9.988;2022-10-16T10:06:36;8.87;;;2.43;;
73142;SDS011;61343;53.694;9.988;2022-10-16T10:09:27;8.90;;;3.35;;
73142;SDS011;61343;53.694;9.988;2022-10-16T10:12:04;8.43;;;2.55;;
73142;SDS011;61343;53.694;9.988;2022-10-16T10:14:44;6.18;;;1.80;;
73142;SDS011;61343;53.694;9.988;2022-10-16T10:17:24;8.88;;;2.80;;
73142;SDS011;61343;53.694;9.988;2022-10-16T10:22:47;7.05;;;2.05;;
73142;SDS011;61343;53.694;9.988;2022-10-16T10:32:46;6.10;;;2.10;;
73142;SDS011;61343;53.694;9.988;2022-10-16T10:40:51;11.33;;;2.30;;
73142;SDS011;61343;53.694;9.988;2022-10-16T10:44:11;5.13;;;1.63;;
73142;SDS011;61343;53.694;9.988;2022-10-16T10:46:37;7.38;;;1.80;;
73142;SDS011;61343;53.694;9.988;2022-10-16T10:54:37;7.97;;;2.40;;
73142;SDS011;61343;53.694;9.988;2022-10-16T10:59:48;5.53;;;1.65;;
73142;SDS011;61343;53.694;9.988;2022-10-16T11:08:04;7.10;;;2.27;;
73142;SDS011;61343;53.694;9.988;2022-10-16T11:10:53;7.05;;;1.92;;
73142;SDS011;61343;53.694;9.988;2022-10-16T11:13:39;4.85;;;1.50;;
73142;SDS011;61343;53.694;9.988;2022-10-16T11:16:33;5.68;;;1.40;;
73142;SDS011;61343;53.694;9.988;2022-10-16T11:19:09;4.78;;;1.27;;
73142;SDS011;61343;53.694;9.988;2022-10-16T11:21:44;5.03;;;1.30;;
73142;SDS011;61343;53.694;9.988;2022-10-16T11:24:18;5.07;;;1.25;;
73142;SDS011;61343;53.694;9.988;2022-10-16T11:26:47;6.10;;;1.30;;
73142;SDS011;61343;53.694;9.988;2022-10-16T11:29:19;6.45;;;1.27;;
73142;SDS011;61343;53.694;9.988;2022-10-16T11:31:51;5.97;;;1.40;;
73142;SDS011;61343;53.694;9.988;2022-10-16T11:34:26;5.70;;;1.30;;
73142;SDS011;61343;53.694;9.988;2022-10-16T11:37:14;4.90;;;1.30;;
73142;SDS011;61343;53.694;9.988;2022-10-16T11:39:44;6.60;;;1.60;;
73142;SDS011;61343;53.694;9.988;2022-10-16T11:47:39;4.43;;;1.23;;
73142;SDS011;61343;53.694;9.988;2022-10-16T11:50:19;4.53;;;1.20;;
73142;SDS011;61343;53.694;9.988;2022-10-16T11:55:44;5.82;;;1.23;;
73142;SDS011;61343;53.694;9.988;2022-10-16T12:01:02;8.10;;;1.30;;
73142;SDS011;61343;53.694;9.988;2022-10-16T12:06:06;5.15;;;1.20;;
73142;SDS011;61343;53.694;9.988;2022-10-16T12:08:51;5.57;;;1.40;;
73142;SDS011;61343;53.694;9.988;2022-10-16T12:14:03;7.65;;;1.40;;
73142;SDS011;61343;53.694;9.988;2022-10-16T12:16:59;7.87;;;1.30;;
73142;SDS011;61343;53.694;9.988;2022-10-16T12:19:27;6.32;;;1.55;;
73142;SDS011;61343;53.694;9.988;2022-10-16T12:21:55;6.13;;;1.30;;
73142;SDS011;61343;53.694;9.988;2022-10-16T12:24:39;4.70;;;1.10;;
73142;SDS011;61343;53.694;9.988;2022-10-16T12:29:55;7.00;;;1.20;;
73142;SDS011;61343;53.694;9.988;2022-10-16T12:34:53;5.47;;;1.10;;
73142;SDS011;61343;53.694;9.988;2022-10-16T12:39:56;5.60;;;1.20;;
73142;SDS011;61343;53.694;9.988;2022-10-16T12:42:30;6.28;;;1.25;;
73142;SDS011;61343;53.694;9.988;2022-10-16T12:44:58;4.82;;;1.35;;
73142;SDS011;61343;53.694;9.988;2022-10-16T12:49:56;5.13;;;1.30;;
73142;SDS011;61343;53.694;9.988;2022-10-16T12:52:25;8.43;;;1.42;;
73142;SDS011;61343;53.694;9.988;2022-10-16T12:55:01;5.10;;;1.20;;
73142;SDS011;61343;53.694;9.988;2022-10-16T12:57:33;8.27;;;1.80;;
73142;SDS011;61343;53.694;9.988;2022-10-16T13:00:21;6.38;;;1.50;;
73142;SDS011;61343;53.694;9.988;2022-10-16T13:17:23;6.38;;;1.30;;
73142;SDS011;61343;53.694;9.988;2022-10-16T13:25:42;4.50;;;1.10;;
73142;SDS011;61343;53.694;9.988;2022-10-16T13:28:11;9.40;;;1.42;;
73142;SDS011;61343;53.694;9.988;2022-10-16T13:33:17;6.70;;;1.20;;
73142;SDS011;61343;53.694;9.988;2022-10-16T13:35:47;6.20;;;1.00;;
73142;SDS011;61343;53.694;9.988;2022-10-16T13:38:23;8.10;;;1.57;;
73142;SDS011;61343;53.694;9.988;2022-10-16T13:40:57;6.38;;;1.40;;
73142;SDS011;61343;53.694;9.988;2022-10-16T13:43:31;8.70;;;1.40;;
73142;SDS011;61343;53.694;9.988;2022-10-16T13:46:01;8.75;;;1.85;;
73142;SDS011;61343;53.694;9.988;2022-10-16T13:48:29;7.40;;;1.10;;
73142;SDS011;61343;53.694;9.988;2022-10-16T13:51:03;6.43;;;1.77;;
73142;SDS011;61343;53.694;9.988;2022-10-16T13:53:46;9.20;;;1.30;;
73142;SDS011;61343;53.694;9.988;2022-10-16T13:56:18;7.40;;;1.40;;
73142;SDS011;61343;53.694;9.988;2022-10-16T13:58:45;9.77;;;1.40;;
73142;SDS011;61343;53.694;9.988;2022-10-16T14:01:16;6.50;;;1.20;;
73142;SDS011;61343;53.694;9.988;2022-10-16T14:03:44;6.00;;;1.10;;
73142;SDS011;61343;53.694;9.988;2022-10-16T14:06:15;8.55;;;1.88;;
73142;SDS011;61343;53.694;9.988;2022-10-16T14:08:44;8.45;;;1.95;;
73142;SDS011;61343;53.694;9.988;2022-10-16T14:11:19;4.05;;;1.23;;
73142;SDS011;61343;53.694;9.988;2022-10-16T14:13:47;5.40;;;1.05;;
73142;SDS011;61343;53.694;9.988;2022-10-16T14:16:16;7.90;;;1.20;;
73142;SDS011;61343;53.694;9.988;2022-10-16T14:18:45;5.75;;;1.40;;
73142;SDS011;61343;53.694;9.988;2022-10-16T14:21:21;7.40;;;1.30;;
73142;SDS011;61343;53.694;9.988;2022-10-16T14:23:46;6.77;;;1.50;;
73142;SDS011;61343;53.694;9.988;2022-10-16T14:26:12;7.00;;;1.20;;
73142;SDS011;61343;53.694;9.988;2022-10-16T14:28:40;3.97;;;1.10;;
73142;SDS011;61343;53.694;9.988;2022-10-16T14:31:23;6.07;;;1.30;;
73142;SDS011;61343;53.694;9.988;2022-10-16T14:33:51;5.90;;;1.20;;
73142;SDS011;61343;53.694;9.988;2022-10-16T14:36:17;5.43;;;1.30;;
73142;SDS011;61343;53.694;9.988;2022-10-16T14:39:01;6.20;;;1.30;;
73142;SDS011;61343;53.694;9.988;2022-10-16T14:41:32;5.77;;;1.50;;
73142;SDS011;61343;53.694;9.988;2022-10-16T14:44:09;7.43;;;1.50;;
73142;SDS011;61343;53.694;9.988;2022-10-16T14:46:37;7.85;;;1.40;;
73142;SDS011;61343;53.694;9.988;2022-10-16T14:51:35;7.15;;;1.27;;
73142;SDS011;61343;53.694;9.988;2022-10-16T14:54:02;8.33;;;1.60;;
73142;SDS011;61343;53.694;9.988;2022-10-16T14:56:29;7.78;;;1.92;;
73142;SDS011;61343;53.694;9.988;2022-10-16T14:58:58;6.43;;;1.13;;
73142;SDS011;61343;53.694;9.988;2022-10-16T15:01:24;8.82;;;1.40;;
73142;SDS011;61343;53.694;9.988;2022-10-16T15:03:50;7.43;;;1.10;;
73142;SDS011;61343;53.694;9.988;2022-10-16T15:06:17;7.88;;;1.35;;
73142;SDS011;61343;53.694;9.988;2022-10-16T15:08:42;7.57;;;1.37;;
73142;SDS011;61343;53.694;9.988;2022-10-16T15:11:09;8.30;;;1.70;;
73142;SDS011;61343;53.694;9.988;2022-10-16T15:13:38;4.53;;;1.35;;
73142;SDS011;61343;53.694;9.988;2022-10-16T15:16:03;5.43;;;1.30;;
73142;SDS011;61343;53.694;9.988;2022-10-16T15:18:29;6.47;;;1.37;;
73142;SDS011;61343;53.694;9.988;2022-10-16T15:20:55;5.90;;;1.23;;
73142;SDS011;61343;53.694;9.988;2022-10-16T15:23:21;8.63;;;1.47;;
73142;SDS011;61343;53.694;9.988;2022-10-16T15:25:48;8.45;;;1.63;;
73142;SDS011;61343;53.694;9.988;2022-10-16T15:28:14;5.05;;;1.65;;
73142;SDS011;61343;53.694;9.988;2022-10-16T15:30:40;5.78;;;1.30;;
73142;SDS011;61343;53.694;9.988;2022-10-16T15:33:11;7.17;;;1.23;;
73142;SDS011;61343;53.694;9.988;2022-10-16T15:35:38;7.22;;;1.50;;
73142;SDS011;61343;53.694;9.988;2022-10-16T15:38:04;8.45;;;1.77;;
73142;SDS011;61343;53.694;9.988;2022-10-16T15:40:29;4.13;;;1.10;;
73142;SDS011;61343;53.694;9.988;2022-10-16T15:42:54;6.67;;;1.27;;
73142;SDS011;61343;53.694;9.988;2022-10-16T15:45:20;8.00;;;1.43;;
73142;SDS011;61343;53.694;9.988;2022-10-16T15:47:45;6.60;;;1.30;;
73142;SDS011;61343;53.694;9.988;2022-10-16T15:50:12;8.43;;;1.30;;
73142;SDS011;61343;53.694;9.988;2022-10-16T15:52:38;5.30;;;1.40;;
73142;SDS011;61343;53.694;9.988;2022-10-16T15:55:05;6.65;;;1.30;;
73142;SDS011;61343;53.694;9.988;2022-10-16T15:57:35;6.45;;;1.30;;
73142;SDS011;61343;53.694;9.988;2022-10-16T16:00:03;7.45;;;1.95;;
73142;SDS011;61343;53.694;9.988;2022-10-16T16:02:30;9.00;;;1.43;;
73142;SDS011;61343;53.694;9.988;2022-10-16T16:04:55;18.87;;;2.30;;
73142;SDS011;61343;53.694;9.988;2022-10-16T16:07:21;5.85;;;1.70;;
73142;SDS011;61343;53.694;9.988;2022-10-16T16:09:46;8.93;;;2.63;;
73142;SDS011;61343;53.694;9.988;2022-10-16T16:12:11;5.37;;;1.87;;
73142;SDS011;61343;53.694;9.988;2022-10-16T16:14:37;8.93;;;1.60;;
73142;SDS011;61343;53.694;9.988;2022-10-16T16:17:02;7.60;;;1.67;;
73142;SDS011;61343;53.694;9.988;2022-10-16T16:19:27;7.10;;;1.63;;
73142;SDS011;61343;53.694;9.988;2022-10-16T16:21:53;9.93;;;1.73;;
73142;SDS011;61343;53.694;9.988;2022-10-16T16:24:18;5.97;;;1.70;;
73142;SDS011;61343;53.694;9.988;2022-10-16T16:26:44;6.57;;;1.50;;
73142;SDS011;61343;53.694;9.988;2022-10-16T16:29:13;7.33;;;1.90;;
73142;SDS011;61343;53.694;9.988;2022-10-16T16:31:40;6.78;;;1.88;;
73142;SDS011;61343;53.694;9.988;2022-10-16T16:34:06;7.03;;;1.80;;
73142;SDS011;61343;53.694;9.988;2022-10-16T16:36:32;7.30;;;1.60;;
73142;SDS011;61343;53.694;9.988;2022-10-16T16:38:58;11.35;;;5.00;;
73142;SDS011;61343;53.694;9.988;2022-10-16T16:41:24;12.37;;;5.23;;
73142;SDS011;61343;53.694;9.988;2022-10-16T16:43:53;12.02;;;5.40;;
73142;SDS011;61343;53.694;9.988;2022-10-16T16:46:20;10.00;;;3.92;;